createdAt,value
2023-03-11T00:00:13.586Z,1.81
2023-03-11T00:00:37.706Z,1.80
2023-03-11T00:01:00.821Z,1.80
2023-03-11T00:01:24.451Z,1.79
2023-03-11T00:01:47.471Z,1.78
2023-03-11T00:02:10.913Z,1.77
2023-03-11T00:02:34.204Z,1.75
2023-03-11T00:02:58.764Z,1.74
2023-03-11T00:03:25.029Z,1.73
2023-03-11T00:03:49.370Z,1.72
2023-03-11T00:04:12.820Z,1.71
2023-03-11T00:04:36.309Z,1.70
2023-03-11T00:04:59.512Z,1.68
2023-03-11T00:05:26.521Z,1.67
2023-03-11T00:05:49.992Z,1.66
2023-03-11T00:06:14.430Z,1.65
2023-03-11T00:06:37.930Z,1.63
2023-03-11T00:07:01.771Z,1.62
2023-03-11T00:07:27.929Z,1.63
2023-03-11T00:07:51.150Z,1.62
2023-03-11T00:08:16.335Z,1.62
2023-03-11T00:08:39.933Z,1.63
2023-03-11T00:09:05.298Z,1.63
2023-03-11T00:09:31.583Z,1.64
2023-03-11T00:09:55.716Z,1.64
2023-03-11T00:10:19.853Z,1.65
2023-03-11T00:10:44.296Z,1.65
2023-03-11T00:11:09.156Z,1.66
2023-03-11T00:11:35.750Z,1.66
2023-03-11T00:12:01.002Z,1.65
2023-03-11T00:12:25.657Z,1.65
2023-03-11T00:12:49.790Z,1.64
2023-03-11T00:13:14.337Z,1.63
2023-03-11T00:13:38.164Z,1.61
2023-03-11T00:14:01.280Z,1.60
2023-03-11T00:14:24.438Z,1.59
2023-03-11T00:14:47.613Z,1.58
2023-03-11T00:15:11.240Z,1.57
2023-03-11T00:15:37.008Z,1.55
2023-03-11T00:16:02.308Z,1.54
2023-03-11T00:16:30.693Z,1.53
2023-03-11T00:16:53.996Z,1.52
2023-03-11T00:17:17.244Z,1.51
2023-03-11T00:17:48.354Z,1.50
2023-03-11T00:18:11.554Z,1.49
2023-03-11T00:18:36.311Z,1.48
2023-03-11T00:19:00.542Z,1.47
2023-03-11T00:19:23.868Z,1.45
2023-03-11T00:19:47.480Z,1.44
2023-03-11T00:20:20.520Z,1.44
2023-03-11T00:20:44.759Z,1.42
2023-03-11T00:21:12.572Z,1.42
2023-03-11T00:21:35.786Z,1.40
2023-03-11T00:21:58.800Z,1.38
2023-03-11T00:22:21.798Z,1.38
2023-03-11T00:22:46.564Z,1.37
2023-03-11T00:23:11.515Z,1.36
2023-03-11T00:23:36.985Z,1.35
2023-03-11T00:24:01.432Z,1.35
2023-03-11T00:24:25.669Z,1.35
2023-03-11T00:24:49.085Z,1.36
2023-03-11T00:25:12.814Z,1.36
2023-03-11T00:25:37.018Z,1.37
2023-03-11T00:26:02.036Z,1.40
2023-03-11T00:26:25.536Z,1.41
2023-03-11T00:26:48.803Z,1.42
2023-03-11T00:27:12.270Z,1.44
2023-03-11T00:27:37.434Z,1.45
2023-03-11T00:28:00.962Z,1.46
2023-03-11T00:28:26.931Z,1.47
2023-03-11T00:28:52.382Z,1.48
2023-03-11T00:29:15.332Z,1.48
2023-03-11T00:29:38.332Z,1.48
2023-03-11T00:30:01.440Z,1.47
2023-03-11T00:30:24.692Z,1.47
2023-03-11T00:30:49.639Z,1.46
2023-03-11T00:31:13.930Z,1.45
2023-03-11T00:31:56.899Z,1.42
2023-03-11T00:32:20.070Z,1.41
2023-03-11T00:32:43.382Z,1.40
2023-03-11T00:33:19.024Z,1.37
2023-03-11T00:33:46.233Z,1.36
2023-03-11T00:34:59.872Z,1.38
2023-03-11T00:35:24.724Z,1.32
2023-03-11T00:35:48.194Z,1.32
2023-03-11T00:36:42.141Z,1.31
2023-03-11T00:37:05.972Z,1.30
2023-03-11T00:37:29.214Z,1.28
2023-03-11T00:37:56.310Z,1.28
2023-03-11T00:38:19.374Z,1.27
2023-03-11T00:38:42.662Z,1.27
2023-03-11T00:39:11.268Z,1.26
2023-03-11T00:39:34.371Z,1.25
2023-03-11T00:39:57.613Z,1.24
2023-03-11T00:40:21.009Z,1.24
2023-03-11T00:40:45.352Z,1.23
2023-03-11T00:41:08.873Z,1.22
2023-03-11T00:41:35.056Z,1.22
2023-03-11T00:41:58.493Z,1.22
2023-03-11T00:42:21.702Z,1.22
2023-03-11T00:42:45.009Z,1.23
2023-03-11T00:43:08.333Z,1.24
2023-03-11T00:43:32.579Z,1.26
2023-03-11T00:43:55.501Z,1.27
2023-03-11T00:44:19.614Z,1.28
2023-03-11T00:44:43.239Z,1.29
2023-03-11T00:45:13.108Z,1.31
2023-03-11T00:45:36.634Z,1.31
2023-03-11T00:46:00.118Z,1.31
2023-03-11T00:46:23.445Z,1.31
2023-03-11T00:46:46.789Z,1.31
2023-03-11T00:47:13.482Z,1.30
2023-03-11T00:47:38.026Z,1.29
2023-03-11T00:48:01.146Z,1.26
2023-03-11T00:48:25.229Z,1.25
2023-03-11T00:48:50.335Z,1.22
2023-03-11T00:49:13.555Z,1.20
2023-03-11T00:49:37.077Z,1.17
2023-03-11T00:50:00.391Z,1.15
2023-03-11T00:50:24.426Z,1.12
2023-03-11T00:50:47.552Z,1.11
2023-03-11T00:51:11.892Z,1.07
2023-03-11T00:51:35.123Z,1.05
2023-03-11T00:52:00.165Z,1.04
2023-03-11T00:52:23.273Z,1.02
2023-03-11T00:52:46.867Z,1.00
2023-03-11T00:53:10.433Z,0.99
2023-03-11T00:53:34.355Z,0.97
2023-03-11T00:53:57.591Z,0.96
2023-03-11T00:54:21.097Z,0.95
2023-03-11T00:54:46.353Z,0.94
2023-03-11T00:55:10.494Z,0.92
2023-03-11T00:55:33.914Z,0.92
2023-03-11T00:55:58.763Z,0.91
2023-03-11T00:56:21.980Z,0.90
2023-03-11T00:56:45.097Z,0.89
2023-03-11T00:57:11.069Z,0.90
2023-03-11T00:57:36.542Z,0.90
2023-03-11T00:58:00.599Z,0.90
2023-03-11T00:58:29.210Z,0.91
2023-03-11T00:58:53.653Z,0.92
2023-03-11T00:59:17.789Z,0.93
2023-03-11T00:59:41.110Z,0.94
2023-03-11T01:00:04.843Z,0.95
2023-03-11T01:00:29.713Z,0.96
2023-03-11T01:00:53.215Z,0.97
2023-03-11T01:01:17.620Z,0.98
2023-03-11T01:01:40.845Z,0.99
2023-03-11T01:02:04.400Z,0.99
2023-03-11T01:02:29.041Z,0.98
2023-03-11T01:02:53.795Z,0.97
2023-03-11T01:03:20.188Z,0.97
2023-03-11T01:03:44.624Z,0.96
2023-03-11T01:04:09.184Z,0.95
2023-03-11T01:04:33.576Z,0.94
2023-03-11T01:04:58.061Z,0.93
2023-03-11T01:05:22.399Z,0.92
2023-03-11T01:05:46.737Z,0.91
2023-03-11T01:06:12.210Z,0.89
2023-03-11T01:06:44.750Z,0.88
2023-03-11T01:07:10.991Z,0.87
2023-03-11T01:07:34.537Z,0.87
2023-03-11T01:07:57.859Z,0.86
2023-03-11T01:08:22.501Z,0.85
2023-03-11T01:08:45.940Z,0.84
2023-03-11T01:09:09.348Z,0.83
2023-03-11T01:09:36.459Z,0.83
2023-03-11T01:10:01.100Z,0.83
2023-03-11T01:10:25.752Z,0.82
2023-03-11T01:10:49.066Z,0.82
2023-03-11T01:11:12.378Z,0.82
2023-03-11T01:11:35.599Z,0.82
2023-03-11T01:11:58.939Z,0.81
2023-03-11T01:12:22.135Z,0.81
2023-03-11T01:12:45.245Z,0.80
2023-03-11T01:13:08.768Z,0.80
2023-03-11T01:13:32.204Z,0.79
2023-03-11T01:13:55.320Z,0.78
2023-03-11T01:14:18.633Z,0.78
2023-03-11T01:14:41.941Z,0.78
2023-03-11T01:15:05.981Z,0.78
2023-03-11T01:15:30.137Z,0.80
2023-03-11T01:15:55.279Z,0.80
2023-03-11T01:16:18.465Z,0.81
2023-03-11T01:16:41.641Z,0.82
2023-03-11T01:17:05.738Z,0.82
2023-03-11T01:17:29.789Z,0.83
2023-03-11T01:17:52.888Z,0.84
2023-03-11T01:18:16.414Z,0.85
2023-03-11T01:18:39.935Z,0.86
2023-03-11T01:19:03.376Z,0.88
2023-03-11T01:19:26.472Z,0.88
2023-03-11T01:19:50.936Z,0.89
2023-03-11T01:20:14.129Z,0.89
2023-03-11T01:20:38.022Z,0.89
2023-03-11T01:21:01.504Z,0.89
2023-03-11T01:21:24.804Z,0.89
2023-03-11T01:21:48.024Z,0.89
2023-03-11T01:22:11.259Z,0.88
2023-03-11T01:22:34.656Z,0.87
2023-03-11T01:22:58.287Z,0.87
2023-03-11T01:23:21.783Z,0.86
2023-03-11T01:23:44.821Z,0.85
2023-03-11T01:24:08.144Z,0.84
2023-03-11T01:24:31.356Z,0.83
2023-03-11T01:24:56.303Z,0.82
2023-03-11T01:25:21.157Z,0.80
2023-03-11T01:25:45.155Z,0.79
2023-03-11T01:26:08.510Z,0.78
2023-03-11T01:26:31.732Z,0.77
2023-03-11T01:26:54.739Z,0.76
2023-03-11T01:27:17.852Z,0.75
2023-03-11T01:27:41.277Z,0.74
2023-03-11T01:28:04.696Z,0.74
2023-03-11T01:28:27.707Z,0.73
2023-03-11T01:28:50.828Z,0.72
2023-03-11T01:29:13.942Z,0.71
2023-03-11T01:29:37.059Z,0.70
2023-03-11T01:30:00.160Z,0.70
2023-03-11T01:30:23.922Z,0.69
2023-03-11T01:30:47.551Z,0.69
2023-03-11T01:31:11.891Z,0.68
2023-03-11T01:31:35.892Z,0.69
2023-03-11T01:31:59.539Z,0.69
2023-03-11T01:32:23.284Z,0.70
2023-03-11T01:32:46.456Z,0.70
2023-03-11T01:33:14.621Z,0.71
2023-03-11T01:33:37.699Z,0.73
2023-03-11T01:34:01.735Z,0.74
2023-03-11T01:34:29.349Z,0.76
2023-03-11T01:34:58.190Z,0.77
2023-03-11T01:35:24.677Z,0.78
2023-03-11T01:35:50.909Z,0.78
2023-03-11T01:36:16.736Z,0.78
2023-03-11T01:36:41.183Z,0.77
2023-03-11T01:37:04.702Z,0.77
2023-03-11T01:37:28.237Z,0.76
2023-03-11T01:37:52.669Z,0.75
2023-03-11T01:38:16.297Z,0.75
2023-03-11T01:38:39.318Z,0.74
2023-03-11T01:39:02.545Z,0.73
2023-03-11T01:39:25.657Z,0.73
2023-03-11T01:39:49.057Z,0.72
2023-03-11T01:40:14.728Z,0.71
2023-03-11T01:40:39.174Z,0.71
2023-03-11T01:41:04.435Z,0.71
2023-03-11T01:41:29.609Z,0.71
2023-03-11T01:41:53.357Z,0.70
2023-03-11T01:42:16.432Z,0.70
2023-03-11T01:42:39.756Z,0.70
2023-03-11T01:43:03.176Z,0.70
2023-03-11T01:43:39.904Z,0.71
2023-03-11T01:44:06.175Z,0.71
2023-03-11T01:44:32.354Z,0.71
2023-03-11T01:44:56.289Z,0.71
2023-03-11T01:45:25.421Z,0.71
2023-03-11T01:45:51.336Z,0.71
2023-03-11T01:46:19.561Z,0.72
2023-03-11T01:46:52.382Z,0.72
2023-03-11T01:47:29.907Z,0.73
2023-03-11T01:47:53.244Z,0.76
2023-03-11T01:48:16.547Z,0.79
2023-03-11T01:48:40.072Z,0.81
2023-03-11T01:49:03.950Z,0.83
2023-03-11T01:49:29.257Z,0.86
2023-03-11T01:49:52.497Z,0.89
2023-03-11T01:50:15.587Z,0.91
2023-03-11T01:50:40.458Z,0.93
2023-03-11T01:51:03.881Z,0.96
2023-03-11T01:51:38.368Z,0.99
2023-03-11T01:52:04.105Z,1.01
2023-03-11T01:52:30.183Z,1.03
2023-03-11T01:52:53.610Z,1.05
2023-03-11T01:53:16.926Z,1.05
2023-03-11T01:53:40.545Z,1.05
2023-03-11T01:54:05.093Z,1.06
2023-03-11T01:54:29.024Z,1.06
2023-03-11T01:54:52.658Z,1.06
2023-03-11T01:55:15.969Z,1.06
2023-03-11T01:55:39.703Z,1.08
2023-03-11T01:56:03.637Z,1.08
2023-03-11T01:56:27.356Z,1.09
2023-03-11T01:56:51.082Z,1.09
2023-03-11T01:57:18.709Z,1.10
2023-03-11T01:57:42.530Z,1.11
2023-03-11T01:58:07.481Z,1.12
2023-03-11T01:58:31.926Z,1.13
2023-03-11T01:58:55.247Z,1.14
2023-03-11T01:59:21.436Z,1.14
2023-03-11T01:59:45.565Z,1.15
2023-03-11T02:00:09.365Z,1.16
2023-03-11T02:00:37.455Z,1.16
2023-03-11T02:01:01.556Z,1.17
2023-03-11T02:01:26.490Z,1.18
2023-03-11T02:01:55.597Z,1.18
2023-03-11T02:02:25.624Z,1.20
2023-03-11T02:02:50.736Z,1.23
2023-03-11T02:03:16.087Z,1.25
2023-03-11T02:03:40.494Z,1.27
2023-03-11T02:04:04.123Z,1.30
2023-03-11T02:04:28.873Z,1.31
2023-03-11T02:04:52.392Z,1.34
2023-03-11T02:05:18.581Z,1.36
2023-03-11T02:05:42.534Z,1.39
2023-03-11T02:06:07.363Z,1.41
2023-03-11T02:06:30.982Z,1.43
2023-03-11T02:06:54.509Z,1.44
2023-03-11T02:07:18.128Z,1.46
2023-03-11T02:07:45.650Z,1.48
2023-03-11T02:08:14.995Z,1.49
2023-03-11T02:08:44.864Z,1.50
2023-03-11T02:09:09.053Z,1.50
2023-03-11T02:09:32.209Z,1.50
2023-03-11T02:09:56.964Z,1.50
2023-03-11T02:10:20.500Z,1.50
2023-03-11T02:10:43.821Z,1.50
2023-03-11T02:11:08.359Z,1.49
2023-03-11T02:11:32.820Z,1.49
2023-03-11T02:11:56.316Z,1.48
2023-03-11T02:12:19.839Z,1.47
2023-03-11T02:12:42.954Z,1.47
2023-03-11T02:13:06.802Z,1.47
2023-03-11T02:13:30.313Z,1.47
2023-03-11T02:13:54.352Z,1.47
2023-03-11T02:14:20.731Z,1.47
2023-03-11T02:14:46.399Z,1.47
2023-03-11T02:15:16.370Z,1.47
2023-03-11T02:15:40.155Z,1.48
2023-03-11T02:16:05.620Z,1.49
2023-03-11T02:16:28.856Z,1.49
2023-03-11T02:16:52.303Z,1.51
2023-03-11T02:17:17.056Z,1.53
2023-03-11T02:17:42.943Z,1.55
2023-03-11T02:18:06.662Z,1.56
2023-03-11T02:18:30.897Z,1.59
2023-03-11T02:18:53.844Z,1.60
2023-03-11T02:19:20.090Z,1.61
2023-03-11T02:19:43.511Z,1.63
2023-03-11T02:20:19.918Z,1.64
2023-03-11T02:20:47.636Z,1.66
2023-03-11T02:21:14.023Z,1.67
2023-03-11T02:21:38.679Z,1.68
2023-03-11T02:22:03.934Z,1.68
2023-03-11T02:22:30.119Z,1.69
2023-03-11T02:22:57.256Z,1.69
2023-03-11T02:23:21.567Z,1.69
2023-03-11T02:23:56.747Z,1.69
2023-03-11T02:24:25.380Z,1.69
2023-03-11T02:24:56.065Z,1.69
2023-03-11T02:25:25.627Z,1.69
2023-03-11T02:25:51.808Z,1.69
2023-03-11T02:26:20.247Z,1.69
2023-03-11T02:26:52.279Z,1.68
2023-03-11T02:27:16.587Z,1.67
2023-03-11T02:27:42.052Z,1.66
2023-03-11T02:28:05.993Z,1.66
2023-03-11T02:28:31.460Z,1.66
2023-03-11T02:28:54.780Z,1.66
2023-03-11T02:29:18.128Z,1.66
2023-03-11T02:29:42.052Z,1.65
2023-03-11T02:30:06.779Z,1.65
2023-03-11T02:30:31.764Z,1.65
2023-03-11T02:30:55.969Z,1.64
2023-03-11T02:31:19.521Z,1.65
2023-03-11T02:31:43.281Z,1.66
2023-03-11T02:32:08.936Z,1.67
2023-03-11T02:32:32.464Z,1.67
2023-03-11T02:32:55.723Z,1.69
2023-03-11T02:33:19.361Z,1.70
2023-03-11T02:33:46.258Z,1.70
2023-03-11T02:34:12.030Z,1.71
2023-03-11T02:34:36.068Z,1.73
2023-03-11T02:34:59.077Z,1.74
2023-03-11T02:35:22.191Z,1.76
2023-03-11T02:35:45.535Z,1.78
2023-03-11T02:36:29.485Z,1.79
2023-03-11T02:36:53.524Z,1.80
2023-03-11T02:37:17.048Z,1.81
2023-03-11T02:37:45.803Z,1.81
2023-03-11T02:38:08.898Z,1.81
2023-03-11T02:38:32.011Z,1.81
2023-03-11T02:38:55.430Z,1.81
2023-03-11T02:39:29.294Z,1.80
2023-03-11T02:40:10.303Z,1.79
2023-03-11T02:40:40.774Z,1.78
2023-03-11T02:41:06.979Z,1.78
2023-03-11T02:41:33.507Z,1.77
2023-03-11T02:41:56.971Z,1.76
2023-03-11T02:42:24.395Z,1.75
2023-03-11T02:42:49.028Z,1.75
2023-03-11T02:43:13.591Z,1.75
2023-03-11T02:43:39.349Z,1.74
2023-03-11T02:44:02.669Z,1.73
2023-03-11T02:44:26.397Z,1.72
2023-03-11T02:44:52.780Z,1.71
2023-03-11T02:45:16.610Z,1.70
2023-03-11T02:45:40.643Z,1.69
2023-03-11T02:46:05.292Z,1.67
2023-03-11T02:46:30.156Z,1.67
2023-03-11T02:46:54.626Z,1.65
2023-03-11T02:47:19.966Z,1.64
2023-03-11T02:47:43.088Z,1.63
2023-03-11T02:48:09.656Z,1.62
2023-03-11T02:48:34.726Z,1.60
2023-03-11T02:48:58.030Z,1.60
2023-03-11T02:49:21.463Z,1.59
2023-03-11T02:49:45.075Z,1.60
2023-03-11T02:50:09.765Z,1.60
2023-03-11T02:50:34.679Z,1.61
2023-03-11T02:50:57.843Z,1.62
2023-03-11T02:51:22.649Z,1.63
2023-03-11T02:51:47.919Z,1.64
2023-03-11T02:52:13.177Z,1.64
2023-03-11T02:52:37.941Z,1.65
2023-03-11T02:53:02.167Z,1.67
2023-03-11T02:53:25.993Z,1.68
2023-03-11T02:53:51.050Z,1.69
2023-03-11T02:54:14.375Z,1.70
2023-03-11T02:54:39.220Z,1.71
2023-03-11T02:55:02.738Z,1.71
2023-03-11T02:55:26.466Z,1.71
2023-03-11T02:55:49.684Z,1.72
2023-03-11T02:56:12.635Z,1.71
2023-03-11T02:56:35.810Z,1.71
2023-03-11T02:56:59.054Z,1.70
2023-03-11T02:57:23.370Z,1.70
2023-03-11T02:57:47.402Z,1.70
2023-03-11T02:58:10.419Z,1.69
2023-03-11T02:58:35.982Z,1.69
2023-03-11T02:58:59.406Z,1.69
2023-03-11T02:59:22.529Z,1.69
2023-03-11T02:59:45.754Z,1.69
2023-03-11T03:00:12.464Z,1.69
2023-03-11T03:00:36.202Z,1.69
2023-03-11T03:01:01.647Z,1.68
2023-03-11T03:01:25.244Z,1.68
2023-03-11T03:01:48.973Z,1.68
2023-03-11T03:02:12.216Z,1.68
2023-03-11T03:02:35.615Z,1.68
2023-03-11T03:02:59.030Z,1.67
2023-03-11T03:03:22.144Z,1.67
2023-03-11T03:03:45.598Z,1.67
2023-03-11T03:04:08.628Z,1.66
2023-03-11T03:04:32.988Z,1.66
2023-03-11T03:04:58.692Z,1.66
2023-03-11T03:05:22.972Z,1.66
2023-03-11T03:05:47.278Z,1.67
2023-03-11T03:06:12.019Z,1.67
2023-03-11T03:06:37.487Z,1.68
2023-03-11T03:07:01.946Z,1.68
2023-03-11T03:07:26.626Z,1.69
2023-03-11T03:07:51.949Z,1.70
2023-03-11T03:08:15.685Z,1.71
2023-03-11T03:08:38.774Z,1.71
2023-03-11T03:09:01.901Z,1.72
2023-03-11T03:09:25.019Z,1.72
2023-03-11T03:09:48.330Z,1.73
2023-03-11T03:10:11.960Z,1.74
2023-03-11T03:10:41.829Z,1.74
2023-03-11T03:11:05.202Z,1.75
2023-03-11T03:11:32.650Z,1.74
2023-03-11T03:11:56.072Z,1.75
2023-03-11T03:12:19.494Z,1.74
2023-03-11T03:12:42.785Z,1.73
2023-03-11T03:13:07.254Z,1.73
2023-03-11T03:13:32.724Z,1.72
2023-03-11T03:13:56.786Z,1.71
2023-03-11T03:14:20.791Z,1.70
2023-03-11T03:14:44.622Z,1.68
2023-03-11T03:15:08.452Z,1.67
2023-03-11T03:15:32.588Z,1.66
2023-03-11T03:15:58.460Z,1.65
2023-03-11T03:16:23.079Z,1.64
2023-03-11T03:16:46.574Z,1.63
2023-03-11T03:17:09.954Z,1.62
2023-03-11T03:17:33.190Z,1.61
2023-03-11T03:17:56.796Z,1.60
2023-03-11T03:18:25.287Z,1.59
2023-03-11T03:18:52.841Z,1.58
2023-03-11T03:19:16.084Z,1.57
2023-03-11T03:19:40.602Z,1.56
2023-03-11T03:20:07.602Z,1.55
2023-03-11T03:20:31.438Z,1.54
2023-03-11T03:20:57.409Z,1.53
2023-03-11T03:21:20.667Z,1.52
2023-03-11T03:21:44.150Z,1.51
2023-03-11T03:22:07.889Z,1.50
2023-03-11T03:22:31.130Z,1.49
2023-03-11T03:22:54.620Z,1.48
2023-03-11T03:23:21.109Z,1.47
2023-03-11T03:23:44.471Z,1.47
2023-03-11T03:24:07.641Z,1.46
2023-03-11T03:24:36.281Z,1.45
2023-03-11T03:25:00.313Z,1.44
2023-03-11T03:25:23.597Z,1.43
2023-03-11T03:25:47.537Z,1.43
2023-03-11T03:26:14.974Z,1.42
2023-03-11T03:26:38.706Z,1.41
2023-03-11T03:27:02.239Z,1.40
2023-03-11T03:27:28.415Z,1.37
2023-03-11T03:27:51.623Z,1.37
2023-03-11T03:28:15.555Z,1.35
2023-03-11T03:28:40.615Z,1.34
2023-03-11T03:29:04.655Z,1.34
2023-03-11T03:29:27.867Z,1.33
2023-03-11T03:29:50.878Z,1.33
2023-03-11T03:30:14.194Z,1.32
2023-03-11T03:30:37.931Z,1.33
2023-03-11T03:31:05.744Z,1.34
2023-03-11T03:31:29.451Z,1.35
2023-03-11T03:31:53.347Z,1.35
2023-03-11T03:32:16.839Z,1.37
2023-03-11T03:32:40.631Z,1.37
2023-03-11T03:33:07.454Z,1.38
2023-03-11T03:33:31.379Z,1.39
2023-03-11T03:33:55.209Z,1.40
2023-03-11T03:34:18.529Z,1.39
2023-03-11T03:34:41.644Z,1.39
2023-03-11T03:35:05.986Z,1.38
2023-03-11T03:35:49.997Z,1.36
2023-03-11T03:36:24.017Z,1.35
2023-03-11T03:36:51.952Z,1.34
2023-03-11T03:37:15.157Z,1.33
2023-03-11T03:37:38.625Z,1.33
2023-03-11T03:38:02.822Z,1.32
2023-03-11T03:38:26.544Z,1.31
2023-03-11T03:38:53.442Z,1.30
2023-03-11T03:39:18.824Z,1.29
2023-03-11T03:39:43.173Z,1.29
2023-03-11T03:40:08.062Z,1.29
2023-03-11T03:40:31.923Z,1.28
2023-03-11T03:40:55.664Z,1.28
2023-03-11T03:41:18.778Z,1.28
2023-03-11T03:41:41.719Z,1.27
2023-03-11T03:42:11.548Z,1.27
2023-03-11T03:42:36.407Z,1.26
2023-03-11T03:43:00.639Z,1.25
2023-03-11T03:43:24.475Z,1.24
2023-03-11T03:43:48.200Z,1.22
2023-03-11T03:44:12.334Z,1.22
2023-03-11T03:44:38.224Z,1.20
2023-03-11T03:45:02.142Z,1.18
2023-03-11T03:45:25.366Z,1.17
2023-03-11T03:45:56.221Z,1.16
2023-03-11T03:46:21.393Z,1.14
2023-03-11T03:46:45.650Z,1.13
2023-03-11T03:47:08.964Z,1.12
2023-03-11T03:47:32.588Z,1.10
2023-03-11T03:47:57.206Z,1.09
2023-03-11T03:48:20.678Z,1.07
2023-03-11T03:48:44.998Z,1.06
2023-03-11T03:49:09.352Z,1.05
2023-03-11T03:49:32.875Z,1.05
2023-03-11T03:49:55.977Z,1.05
2023-03-11T03:50:19.703Z,1.05
2023-03-11T03:50:43.774Z,1.07
2023-03-11T03:51:10.035Z,1.08
2023-03-11T03:51:35.147Z,1.10
2023-03-11T03:52:06.291Z,1.12
2023-03-11T03:52:29.917Z,1.13
2023-03-11T03:52:53.219Z,1.15
2023-03-11T03:53:17.077Z,1.16
2023-03-11T03:53:40.472Z,1.17
2023-03-11T03:54:09.926Z,1.18
2023-03-11T03:54:34.435Z,1.18
2023-03-11T03:54:57.995Z,1.18
2023-03-11T03:55:21.416Z,1.18
2023-03-11T03:55:45.712Z,1.17
2023-03-11T03:56:11.231Z,1.16
2023-03-11T03:56:34.863Z,1.15
2023-03-11T03:56:58.581Z,1.15
2023-03-11T03:57:21.851Z,1.14
2023-03-11T03:57:45.127Z,1.14
2023-03-11T03:58:09.670Z,1.13
2023-03-11T03:58:32.878Z,1.13
2023-03-11T03:58:56.202Z,1.12
2023-03-11T03:59:20.745Z,1.11
2023-03-11T03:59:48.253Z,1.11
2023-03-11T04:00:13.113Z,1.10
2023-03-11T04:00:40.218Z,1.10
2023-03-11T04:01:04.654Z,1.10
2023-03-11T04:01:28.789Z,1.09
2023-03-11T04:01:52.400Z,1.09
2023-03-11T04:02:16.594Z,1.09
2023-03-11T04:02:40.062Z,1.08
2023-03-11T04:03:04.683Z,1.08
2023-03-11T04:03:35.900Z,1.08
2023-03-11T04:04:03.430Z,1.07
2023-03-11T04:04:26.558Z,1.08
2023-03-11T04:04:50.486Z,1.08
2023-03-11T04:05:13.894Z,1.08
2023-03-11T04:05:37.727Z,1.09
2023-03-11T04:06:07.928Z,1.11
2023-03-11T04:06:37.059Z,1.14
2023-03-11T04:07:06.090Z,1.16
2023-03-11T04:07:29.732Z,1.19
2023-03-11T04:07:53.238Z,1.22
2023-03-11T04:08:17.281Z,1.24
2023-03-11T04:08:42.126Z,1.27
2023-03-11T04:09:06.061Z,1.30
2023-03-11T04:09:31.423Z,1.32
2023-03-11T04:09:54.706Z,1.34
2023-03-11T04:10:18.570Z,1.35
2023-03-11T04:10:42.317Z,1.36
2023-03-11T04:11:05.723Z,1.36
2023-03-11T04:11:29.449Z,1.37
2023-03-11T04:11:53.789Z,1.37
2023-03-11T04:12:18.028Z,1.38
2023-03-11T04:12:42.675Z,1.38
2023-03-11T04:13:05.998Z,1.38
2023-03-11T04:13:29.415Z,1.39
2023-03-11T04:13:52.632Z,1.40
2023-03-11T04:14:17.179Z,1.40
2023-03-11T04:14:49.293Z,1.40
2023-03-11T04:15:15.168Z,1.40
2023-03-11T04:15:39.660Z,1.41
2023-03-11T04:16:19.077Z,1.41
2023-03-11T04:16:44.991Z,1.41
2023-03-11T04:17:09.222Z,1.42
2023-03-11T04:17:32.643Z,1.42
2023-03-11T04:17:59.290Z,1.42
2023-03-11T04:18:23.072Z,1.42
2023-03-11T04:18:46.672Z,1.43
2023-03-11T04:19:10.520Z,1.44
2023-03-11T04:19:33.923Z,1.45
2023-03-11T04:19:57.141Z,1.47
2023-03-11T04:20:20.867Z,1.49
2023-03-11T04:20:45.014Z,1.51
2023-03-11T04:21:12.755Z,1.54
2023-03-11T04:21:38.220Z,1.58
2023-03-11T04:22:04.632Z,1.62
2023-03-11T04:22:29.238Z,1.64
2023-03-11T04:22:52.549Z,1.67
2023-03-11T04:23:17.400Z,1.70
2023-03-11T04:23:40.551Z,1.73
2023-03-11T04:24:03.879Z,1.76
2023-03-11T04:24:30.109Z,1.78
2023-03-11T04:24:53.837Z,1.79
2023-03-11T04:25:17.387Z,1.81
2023-03-11T04:25:40.584Z,1.82
2023-03-11T04:26:04.200Z,1.83
2023-03-11T04:26:28.588Z,1.84
2023-03-11T04:26:51.764Z,1.85
2023-03-11T04:27:15.825Z,1.87
2023-03-11T04:27:42.798Z,1.87
2023-03-11T04:28:08.992Z,1.88
2023-03-11T04:28:32.295Z,1.89
2023-03-11T04:28:55.815Z,1.90
2023-03-11T04:29:19.753Z,1.92
2023-03-11T04:29:45.831Z,1.93
2023-03-11T04:30:09.661Z,1.93
2023-03-11T04:30:36.379Z,1.94
2023-03-11T04:31:01.625Z,1.96
2023-03-11T04:31:26.369Z,1.98
2023-03-11T04:31:50.401Z,2.00
2023-03-11T04:32:16.073Z,2.03
2023-03-11T04:32:39.760Z,2.06
2023-03-11T04:33:03.425Z,2.09
2023-03-11T04:33:26.543Z,2.11
2023-03-11T04:33:49.670Z,2.14
2023-03-11T04:34:12.968Z,2.18
2023-03-11T04:34:36.803Z,2.20
2023-03-11T04:35:00.458Z,2.23
2023-03-11T04:35:24.610Z,2.25
2023-03-11T04:35:47.925Z,2.28
2023-03-11T04:36:12.971Z,2.29
2023-03-11T04:36:36.358Z,2.30
2023-03-11T04:36:59.675Z,2.32
2023-03-11T04:37:29.337Z,2.32
2023-03-11T04:37:52.450Z,2.34
2023-03-11T04:38:15.631Z,2.34
2023-03-11T04:38:42.875Z,2.35
2023-03-11T04:39:06.909Z,2.36
2023-03-11T04:39:35.150Z,2.37
2023-03-11T04:40:00.913Z,2.38
2023-03-11T04:40:24.566Z,2.39
2023-03-11T04:40:48.074Z,2.35
2023-03-11T04:41:11.902Z,2.41
2023-03-11T04:41:37.990Z,2.42
2023-03-11T04:42:03.887Z,2.43
2023-03-11T04:42:28.485Z,2.43
2023-03-11T04:42:53.145Z,2.44
2023-03-11T04:43:16.395Z,2.45
2023-03-11T04:43:41.512Z,2.46
2023-03-11T04:44:04.726Z,2.49
2023-03-11T04:44:28.054Z,2.51
2023-03-11T04:44:56.690Z,2.53
2023-03-11T04:45:19.901Z,2.56
2023-03-11T04:45:44.547Z,2.59
2023-03-11T04:46:09.933Z,2.62
2023-03-11T04:46:33.873Z,2.64
2023-03-11T04:46:57.674Z,2.66
2023-03-11T04:47:22.217Z,2.68
2023-03-11T04:47:48.921Z,2.70
2023-03-11T04:48:12.117Z,2.72
2023-03-11T04:48:35.841Z,2.73
2023-03-11T04:48:58.999Z,2.74
2023-03-11T04:49:22.900Z,2.75
2023-03-11T04:49:46.219Z,2.75
2023-03-11T04:50:09.553Z,2.75
2023-03-11T04:50:33.180Z,2.76
2023-03-11T04:50:58.731Z,2.77
2023-03-11T04:51:22.159Z,2.77
2023-03-11T04:51:46.305Z,2.77
2023-03-11T04:52:10.222Z,2.77
2023-03-11T04:52:34.271Z,2.78
2023-03-11T04:52:57.983Z,2.78
2023-03-11T04:53:21.510Z,2.79
2023-03-11T04:53:45.132Z,2.79
2023-03-11T04:54:08.861Z,2.79
2023-03-11T04:54:33.407Z,2.80
2023-03-11T04:54:56.736Z,2.80
2023-03-11T04:55:19.940Z,2.80
2023-03-11T04:55:43.285Z,2.81
2023-03-11T04:56:06.680Z,2.82
2023-03-11T04:56:30.103Z,2.84
2023-03-11T04:56:56.198Z,2.85
2023-03-11T04:57:21.850Z,2.87
2023-03-11T04:57:46.703Z,2.89
2023-03-11T04:58:09.950Z,2.91
2023-03-11T04:58:33.886Z,2.93
2023-03-11T04:58:57.174Z,2.96
2023-03-11T04:59:20.497Z,2.98
2023-03-11T04:59:44.321Z,3.00
2023-03-11T05:00:10.849Z,3.02
2023-03-11T05:00:34.725Z,3.05
2023-03-11T05:01:01.439Z,3.07
2023-03-11T05:01:24.812Z,3.08
2023-03-11T05:01:47.909Z,3.10
2023-03-11T05:02:12.925Z,3.10
2023-03-11T05:02:38.086Z,3.12
2023-03-11T05:03:01.359Z,3.12
2023-03-11T05:03:27.237Z,3.13
2023-03-11T05:03:53.256Z,3.14
2023-03-11T05:04:17.035Z,3.15
2023-03-11T05:04:40.668Z,3.16
2023-03-11T05:05:06.592Z,3.16
2023-03-11T05:05:32.988Z,3.17
2023-03-11T05:06:00.307Z,3.18
2023-03-11T05:06:24.008Z,3.19
2023-03-11T05:06:47.534Z,3.19
2023-03-11T05:07:11.292Z,3.20
2023-03-11T05:07:34.659Z,3.21
2023-03-11T05:07:58.207Z,3.22
2023-03-11T05:08:23.290Z,3.24
2023-03-11T05:08:46.584Z,3.25
2023-03-11T05:09:10.516Z,3.27
2023-03-11T05:09:35.165Z,3.30
2023-03-11T05:09:58.485Z,3.31
2023-03-11T05:10:24.561Z,3.34
2023-03-11T05:10:51.357Z,3.38
2023-03-11T05:11:14.472Z,3.41
2023-03-11T05:11:38.321Z,3.44
2023-03-11T05:12:06.630Z,3.46
2023-03-11T05:12:32.301Z,3.49
2023-03-11T05:12:55.231Z,3.52
2023-03-11T05:13:20.374Z,3.55
2023-03-11T05:13:44.322Z,3.56
2023-03-11T05:14:08.443Z,3.58
2023-03-11T05:14:31.541Z,3.59
2023-03-11T05:14:54.770Z,3.60
2023-03-11T05:15:18.937Z,3.61
2023-03-11T05:15:42.796Z,3.62
2023-03-11T05:16:07.901Z,3.63
2023-03-11T05:16:31.530Z,3.64
2023-03-11T05:16:54.671Z,3.64
2023-03-11T05:17:19.501Z,3.66
2023-03-11T05:17:42.926Z,3.66
2023-03-11T05:18:06.103Z,3.67
2023-03-11T05:18:33.839Z,3.68
2023-03-11T05:19:00.950Z,3.69
2023-03-11T05:19:31.219Z,3.70
2023-03-11T05:19:55.045Z,3.72
2023-03-11T05:20:21.136Z,3.73
2023-03-11T05:20:45.547Z,3.75
2023-03-11T05:21:10.542Z,3.77
2023-03-11T05:21:36.398Z,3.79
2023-03-11T05:21:59.616Z,3.81
2023-03-11T05:22:23.854Z,3.83
2023-03-11T05:22:47.286Z,3.85
2023-03-11T05:23:10.600Z,3.88
2023-03-11T05:23:33.810Z,3.90
2023-03-11T05:23:57.746Z,3.92
2023-03-11T05:24:20.863Z,3.95
2023-03-11T05:24:50.421Z,3.97
2023-03-11T05:25:14.761Z,3.99
2023-03-11T05:25:38.587Z,4.01
2023-03-11T05:26:02.832Z,4.03
2023-03-11T05:26:30.953Z,4.05
2023-03-11T05:26:54.475Z,4.06
2023-03-11T05:27:21.435Z,4.06
2023-03-11T05:27:48.166Z,4.07
2023-03-11T05:28:11.733Z,4.07
2023-03-11T05:28:38.913Z,4.08
2023-03-11T05:29:04.064Z,4.08
2023-03-11T05:29:27.476Z,4.09
2023-03-11T05:29:50.795Z,4.09
2023-03-11T05:30:15.556Z,4.10
2023-03-11T05:30:38.866Z,4.10